Terminal Aerodrome Forecast
Issued by NWS

Home | Current Version | Previous Version | Text Only | Print | Product List | Glossary On
Versions: 1 2 3 4 5 6 7 8 9 10 11 12 13 14
000
FTUS43 KMQT 241700
TAFIWD
TAF
KIWD 241738Z 2418/2518 13013G20KT 5SM -RA OVC020
     FM242100 13011G16KT 3SM -RASN OVC015
     FM250500 16007KT 6SM -SN OVC008
     FM250700 25006KT P6SM OVC006
     FM251400 27009KT P6SM OVC010
      AMD LTD TO CLD VIS AND WIND=

USA.gov is the U.S. government's official web portal to all federal, state and local government web resources and services.